Flight Track Log - Related Links

Times and Time Zones

All times are in EDT time to prevent confusion due to time zone crossing. See the N246MP flight status page for this flight to view local times or setup timezone preferences in your user account.

Time Position Orientation Groundspeed Altitude Reporting Facility
EDT Latitude Longitude Course Direction KTS MPH feet Rate Location/Type
Tue 09:14:16 AM 42.1247 -76.8747 74° East 148 170 2,600  Level New York Center
Tue 09:15:16 AM 42.1356 -76.8225 74° East 142 163 3,300 645 Climbing New York Center
Tue 09:16:17 AM 42.1361 -76.7722 89° East 142 163 3,900 590 Climbing New York Center
Tue 09:17:18 AM 42.1347 -76.7161 92° East 142 163 4,500 605 Climbing New York Center
Tue 09:18:16 AM 42.1314 -76.6600 95° East 142 163 5,100 610 Climbing New York Center
Tue 09:19:16 AM 42.1278 -76.6036 95° East 142 163 5,700 595 Climbing New York Center
Tue 09:20:17 AM 42.1203 -76.5442 100° East 142 163 6,300 605 Climbing New York Center
Tue 09:21:15 AM 42.1108 -76.4847 102° East 147 169 6,900 610 Climbing New York Center
Tue 09:22:15 AM 42.0989 -76.4278 106° East 147 169 7,500 689 Climbing New York Center
Tue 09:23:17 AM 42.0892 -76.3711 103° East 152 175 8,300 634 Climbing New York Center
Tue 09:24:18 AM 42.0775 -76.3058 104° East 152 175 8,800 559 Climbing New York Center
Tue 09:25:15 AM 42.0678 -76.2492 103° East 152 175 9,400 610 Climbing New York Center
Tue 09:26:16 AM 42.0578 -76.1897 103° East 152 175 10,000 590 Climbing New York Center
Tue 09:27:17 AM 42.0442 -76.1272 106° East 157 181 10,600 600 Climbing New York Center
Tue 09:28:16 AM 42.0322 -76.0675 105° East 163 188 11,200 600 Climbing New York Center
Tue 09:29:17 AM 42.0225 -76.0053 102° East 163 188 11,800 550 Climbing New York Center
Tue 09:30:16 AM 42.0103 -75.9514 107° East 163 188 12,300 555 Climbing New York Center
Tue 09:31:16 AM 41.9983 -75.8889 104° East 169 194 12,900 580 Climbing New York Center
Tue 09:33:43 AM 41.9692 -75.7325 104° East 168 193 14,300 580 Climbing Boston Center
Tue 09:34:43 AM 41.9583 -75.6733 104° East 163 188 14,900 600 Climbing Boston Center
Tue 09:35:43 AM 41.9453 -75.6111 106° East 168 193 15,500 600 Climbing Boston Center
Tue 09:36:43 AM 41.9344 -75.5519 104° East 168 193 16,100 545 Climbing Boston Center
Tue 09:37:55 AM 41.9217 -75.4900 105° East 168 193 16,700 545 Climbing Boston Center
Tue 09:38:55 AM 41.9047 -75.4167 107° East 168 193 17,300 300 Climbing Boston Center
Tue 09:39:55 AM 41.8794 -75.4322 205° Southwest 118 136 17,300  Level Boston Center
Tue 09:40:55 AM 41.8597 -75.4675 233° Southwest 71 82 17,300 150 Level Boston Center
Tue 09:41:55 AM 41.8467 -75.4083 106° East 99 114 17,600 100 Climbing Boston Center
Tue 09:42:55 AM 41.8947 -75.4078 360° North 50 58 17,500 -50 Descending Boston Center
Tue 09:43:55 AM 41.9467 -75.4075 360° North 123 142 17,500  Level Boston Center
Tue 09:44:55 AM 41.9883 -75.4094 358° North 157 181 17,500  Level Boston Center
Tue 09:46:07 AM 42.0467 -75.4094 360° North 175 201 17,500  Level Boston Center
Tue 09:47:07 AM 42.1092 -75.4094 360° North 175 201 17,500  Level Boston Center
Tue 09:48:07 AM 42.1594 -75.4092 360° North 175 201 17,500  Level Boston Center
Tue 09:49:07 AM 42.2114 -75.4086 360° North 175 201 17,500  Level Boston Center
Tue 09:50:07 AM 42.2614 -75.4111 358° North 175 201 17,500  Level Boston Center
Tue 09:51:07 AM 42.3114 -75.4136 358° North 175 201 17,500  Level Boston Center
Tue 09:52:07 AM 42.3656 -75.4133 360° North 175 201 17,500  Level Boston Center
Tue 09:53:07 AM 42.4156 -75.4156 358° North 175 201 17,500  Level Boston Center
Tue 09:54:07 AM 42.4678 -75.4153 360° North 180 207 17,500  Level Boston Center
Tue 09:55:07 AM 42.5178 -75.4178 358° North 180 207 17,500  Level Boston Center
Tue 09:56:07 AM 42.5719 -75.4175 360° North 180 207 17,500  Level Boston Center
Tue 09:57:07 AM 42.6239 -75.4172 360° North 180 207 17,500  Level Boston Center
Tue 09:58:07 AM 42.6761 -75.4169 360° North 180 207 17,500  Level Boston Center
Tue 09:59:07 AM 42.7283 -75.4194 358° North 180 207 17,500  Level Boston Center
Tue 10:00:07 AM 42.7825 -75.4192 360° North 180 207 17,500  Level Boston Center
Tue 10:01:07 AM 42.8344 -75.4189 360° North 180 207 17,500  Level Boston Center
Tue 10:02:07 AM 42.8867 -75.4186 360° North 180 207 17,500  Level Boston Center
Tue 10:03:07 AM 42.9408 -75.4211 358° North 180 207 17,500  Level Boston Center
Tue 10:04:07 AM 42.9950 -75.4208 360° North 180 207 17,500  Level Boston Center
Tue 10:05:07 AM 43.0475 -75.4092 North 180 207 17,500  Level Boston Center
Tue 10:06:07 AM 43.0214 -75.3653 129° Southeast 107 123 17,500  Level Boston Center
Tue 10:07:07 AM 42.9736 -75.3631 178° South 84 97 17,500  Level Boston Center
Tue 10:08:07 AM 42.9236 -75.3636 180° South 147 169 17,500  Level Boston Center
Tue 10:09:07 AM 42.8733 -75.3642 180° South 168 193 17,500  Level Boston Center
Tue 10:10:07 AM 42.8256 -75.3644 180° South 173 199 17,500  Level Boston Center
Tue 10:11:07 AM 42.7756 -75.3622 178° South 179 206 17,500  Level Boston Center
Tue 10:12:07 AM 42.7256 -75.3597 178° South 179 206 17,500  Level Boston Center
Tue 10:13:07 AM 42.6756 -75.3631 183° South 179 206 17,500  Level Boston Center
Tue 10:14:07 AM 42.6253 -75.3636 180° South 179 206 17,500  Level Boston Center
Tue 10:15:07 AM 42.5733 -75.3611 178° South 179 206 17,500  Level Boston Center
Tue 10:16:07 AM 42.5211 -75.3614 180° South 179 206 17,500  Level Boston Center
Tue 10:17:07 AM 42.4733 -75.3619 180° South 179 206 17,500  Level Boston Center
Tue 10:18:07 AM 42.4233 -75.3625 180° South 179 206 17,500  Level Boston Center
Tue 10:19:07 AM 42.3711 -75.3628 180° South 179 206 17,500  Level Boston Center
Tue 10:20:07 AM 42.3211 -75.3606 178° South 179 206 17,500  Level Boston Center
Tue 10:21:07 AM 42.2692 -75.3581 178° South 179 206 17,500  Level Boston Center
Tue 10:22:07 AM 42.2169 -75.3558 178° South 179 206 17,500  Level Boston Center
Tue 10:23:07 AM 42.1669 -75.3561 180° South 184 212 17,500  Level Boston Center
Tue 10:24:07 AM 42.1128 -75.3564 180° South 189 217 17,500  Level Boston Center
Tue 10:25:07 AM 42.0606 -75.3597 183° South 194 223 17,500  Level Boston Center
Tue 10:26:07 AM 42.0086 -75.3572 178° South 194 223 17,500  Level Boston Center
Tue 10:27:07 AM 41.9564 -75.3575 180° South 194 223 17,500  Level Boston Center
Tue 10:28:07 AM 41.9042 -75.3581 180° South 194 223 17,500  Level Boston Center
Tue 10:29:07 AM 41.8581 -75.3753 196° South 194 223 17,500  Level Boston Center
Tue 10:30:19 AM 41.8492 -75.3081 100° East 118 136 17,500  Level Boston Center
Tue 10:31:19 AM 41.8994 -75.3047 North 74 85 17,500  Level Boston Center
Tue 10:32:19 AM 41.9494 -75.3042 360° North 134 154 17,500  Level Boston Center
Tue 10:33:19 AM 42.0017 -75.3039 360° North 161 185 17,500  Level Boston Center
Tue 10:34:19 AM 42.0536 -75.3033 360° North 177 204 17,500  Level Boston Center
Tue 10:35:19 AM 42.1058 -75.3058 358° North 183 211 17,500  Level Boston Center
Tue 10:36:19 AM 42.1581 -75.3025 North 183 211 17,500  Level Boston Center
Tue 10:37:19 AM 42.2100 -75.3078 356° North 183 211 17,500  Level Boston Center
Tue 10:38:19 AM 42.2600 -75.3044 North 183 211 17,500  Level Boston Center
Tue 10:39:19 AM 42.3119 -75.3097 356° North 183 211 17,500  Level Boston Center
Tue 10:40:19 AM 42.3642 -75.3092 360° North 178 205 17,500  Level Boston Center
Tue 10:41:19 AM 42.4161 -75.3086 360° North 178 205 17,500  Level Boston Center
Tue 10:42:19 AM 42.4683 -75.3083 360° North 178 205 17,500  Level Boston Center
Tue 10:43:19 AM 42.5206 -75.3081 360° North 178 205 17,500  Level Boston Center
Tue 10:44:19 AM 42.5747 -75.3075 360° North 178 205 17,500  Level Boston Center
Tue 10:45:19 AM 42.6267 -75.3100 358° North 178 205 17,500  Level Boston Center
Tue 10:46:19 AM 42.6831 -75.3097 360° North 184 212 17,500  Level Boston Center
Tue 10:47:19 AM 42.7353 -75.3094 360° North 184 212 17,500  Level Boston Center
Tue 10:48:19 AM 42.7700 -75.3392 328° Northwest 179 206 17,500  Level Boston Center
Tue 10:49:19 AM 42.7303 -75.3403 181° South 40 46 17,500  Level Boston Center
Tue 10:50:31 AM 42.7111 -75.2717 111° Southeast 97 112 17,500 -333 Level Boston Center
Tue 10:51:43 AM 42.6764 -75.3236 228° Southwest 83 96 16,700 -727 Descending Boston Center
Tue 10:52:43 AM 42.6514 -75.4044 247° West 152 175 15,900 -591 Descending Boston Center
Tue 10:53:55 AM 42.6331 -75.4683 249° West 175 201 15,400 -545 Descending Boston Center
Tue 10:54:55 AM 42.6100 -75.5464 248° West 185 213 14,700 -700 Descending Boston Center
Tue 11:03:00 AM 42.5761 -75.6612 247° West  Level FlightAware Approximate
Tue 11:10:00 AM 42.3989 -76.1593 247° West  Level FlightAware Approximate
Tue 11:11:00 AM 42.3758 -76.2325 247° West  Level FlightAware Approximate
Tue 11:12:00 AM 42.3527 -76.3056 247° West  Level FlightAware Approximate
Tue 11:13:00 AM 42.3302 -76.3791 251° West  Level FlightAware Approximate
Tue 11:14:00 AM 42.3089 -76.4529 242° Southwest  Level FlightAware Approximate
Tue 11:15:00 AM 42.2833 -76.5236 270° West  Level FlightAware Approximate
Tue 11:16:00 AM 42.2589 -76.5947 242° Southwest  Level FlightAware Approximate
Tue 11:17:00 AM 42.2310 -76.6646 242° Southwest  Level FlightAware Approximate
Tue 11:18:00 AM 42.2031 -76.7344 242° Southwest  Level FlightAware Approximate
Tue 11:19:00 AM 42.1751 -76.8042 242° Southwest  Level FlightAware Approximate
Tue 11:20:00 AM 42.1500 -76.8749 270° West  Level FlightAware Approximate
Tue 11:21:00 AM 42.1500 -76.8833 270° West  Level FlightAware Approximate
Tue 11:22:00 AM 42.1599 -76.8917 270° West  Level Estimated
Tue 11:23:00 AM 42.1599 -76.8917 270° West  Level Estimated
Tue 11:24:00 AM 42.1599 -76.8917 270° West  Level Estimated
Tue 11:25:00 AM 42.1599 -76.8917 270° West  Level Estimated
Tue 11:26:00 AM 42.1599 -76.8917 270° West  Level Estimated
Tue 11:27:00 AM 42.1599 -76.8917 270° West  Level Estimated
Tue 11:28:00 AM 42.1599 -76.8917 270° West  Level Estimated
Tue 11:29:00 AM 42.1599 -76.8917 270° West  Level Estimated
Tue 11:30:00 AM 42.1599 -76.8917 270° West  Level Estimated
Tue 11:31:00 AM 42.1599 -76.8917 270° West  Level Estimated
Tue 11:32:00 AM 42.1599 -76.8917 270° West  Level Estimated
Tue 11:33:00 AM 42.1599 -76.8917 270° West  Level Estimated
Tue 11:34:00 AM 42.1599 -76.8917 270° West  Level Estimated
Tue 11:35:00 AM 42.1599 -76.8917 270° West  Level Estimated
Tue 11:36:00 AM 42.1599 -76.8917 270° West  Level Estimated
Tue 11:37:00 AM 42.1599 -76.8917 270° West  Level Estimated
Tue 11:38:00 AM 42.1599 -76.8917 270° West  Level Estimated
Tue 11:39:00 AM 42.1599 -76.8917 270° West  Level Estimated
Tue 11:40:00 AM 42.1599 -76.8917 270° West  Level Estimated
Tue 11:41:00 AM 42.1599 -76.8917 270° West  Level Estimated
Tue 11:42:00 AM 42.1599 -76.8917 270° West  Level Estimated
Tue 11:43:00 AM 42.1599 -76.8917 270° West  Level Estimated
Tue 11:44:00 AM 42.1599 -76.8917 270° West  Level Estimated
Tue 11:45:00 AM 42.1599 -76.8917 270° West  Level Estimated
Tue 11:46:00 AM 42.1599 -76.8917 270° West  Level Estimated
Tue 11:47:00 AM 42.1599 -76.8917 270° West  Level Estimated
Tue 11:48:00 AM 42.1599 -76.8917 270° West  Level Estimated
Tue 11:49:00 AM 42.1599 -76.8917 270° West  Level Estimated
Tue 11:50:00 AM 42.1599 -76.8917 270° West  Level Estimated

Login

Don't have an account? Register now (free) for customized features, flight alerts, and more!